sensor_id;sensor_type;location;lat;lon;timestamp;pressure;altitude;pressure_sealevel;temperature;humidity
19759;BME280;10038;42.662;23.278;2022-08-30T00:00:21;72754.63;;;18.75;98.92
19759;BME280;10038;42.662;23.278;2022-08-30T00:03:08;72764.38;;;18.81;98.07
19759;BME280;10038;42.662;23.278;2022-08-30T00:05:35;72760.72;;;18.75;98.24
19759;BME280;10038;42.662;23.278;2022-08-30T00:08:02;72766.84;;;18.85;97.93
19759;BME280;10038;42.662;23.278;2022-08-30T00:10:29;72777.41;;;18.88;98.82
19759;BME280;10038;42.662;23.278;2022-08-30T00:12:56;72782.81;;;18.95;98.76
19759;BME280;10038;42.662;23.278;2022-08-30T00:15:25;72770.44;;;18.81;99.09
19759;BME280;10038;42.662;23.278;2022-08-30T00:17:53;72739.38;;;18.59;100.00
19759;BME280;10038;42.662;23.278;2022-08-30T00:20:23;72696.72;;;18.20;100.00
19759;BME280;10038;42.662;23.278;2022-08-30T00:22:51;72695.88;;;18.24;100.00
19759;BME280;10038;42.662;23.278;2022-08-30T00:25:19;72711.09;;;18.30;100.00
19759;BME280;10038;42.662;23.278;2022-08-30T00:27:46;72722.75;;;18.40;100.00
19759;BME280;10038;42.662;23.278;2022-08-30T00:30:15;72728.41;;;18.43;100.00
19759;BME280;10038;42.662;23.278;2022-08-30T00:32:43;72722.31;;;18.42;100.00
19759;BME280;10038;42.662;23.278;2022-08-30T00:35:12;72715.50;;;18.39;100.00
19759;BME280;10038;42.662;23.278;2022-08-30T00:37:39;72725.22;;;18.45;100.00
19759;BME280;10038;42.662;23.278;2022-08-30T00:40:07;72719.41;;;18.40;100.00
19759;BME280;10038;42.662;23.278;2022-08-30T00:42:37;72712.16;;;18.38;100.00
19759;BME280;10038;42.662;23.278;2022-08-30T00:45:10;72694.41;;;18.18;100.00
19759;BME280;10038;42.662;23.278;2022-08-30T00:47:39;72711.84;;;18.33;100.00
19759;BME280;10038;42.662;23.278;2022-08-30T00:50:08;72727.38;;;18.44;99.08
19759;BME280;10038;42.662;23.278;2022-08-30T00:52:37;72720.91;;;18.46;99.63
19759;BME280;10038;42.662;23.278;2022-08-30T00:55:06;72733.97;;;18.52;99.11
19759;BME280;10038;42.662;23.278;2022-08-30T00:57:33;72729.13;;;18.46;99.14
19759;BME280;10038;42.662;23.278;2022-08-30T01:00:03;72720.00;;;18.40;99.66
19759;BME280;10038;42.662;23.278;2022-08-30T01:02:30;72714.91;;;18.38;99.64
19759;BME280;10038;42.662;23.278;2022-08-30T01:04:59;72715.91;;;18.37;99.38
19759;BME280;10038;42.662;23.278;2022-08-30T01:07:28;72704.63;;;18.32;99.46
19759;BME280;10038;42.662;23.278;2022-08-30T01:09:55;72706.63;;;18.28;100.00
19759;BME280;10038;42.662;23.278;2022-08-30T01:12:22;72700.53;;;18.28;100.00
19759;BME280;10038;42.662;23.278;2022-08-30T01:14:49;72680.72;;;18.01;100.00
19759;BME280;10038;42.662;23.278;2022-08-30T01:17:16;72684.25;;;18.14;100.00
19759;BME280;10038;42.662;23.278;2022-08-30T01:19:46;72696.72;;;18.20;100.00
19759;BME280;10038;42.662;23.278;2022-08-30T01:22:20;72676.53;;;18.05;100.00
19759;BME280;10038;42.662;23.278;2022-08-30T01:24:53;72680.44;;;18.06;100.00
19759;BME280;10038;42.662;23.278;2022-08-30T01:27:22;72707.19;;;18.29;100.00
19759;BME280;10038;42.662;23.278;2022-08-30T01:29:50;72710.50;;;18.29;100.00
19759;BME280;10038;42.662;23.278;2022-08-30T01:32:17;72706.63;;;18.28;100.00
19759;BME280;10038;42.662;23.278;2022-08-30T01:34:45;72666.50;;;17.94;100.00
19759;BME280;10038;42.662;23.278;2022-08-30T01:37:14;72695.56;;;18.19;100.00
19759;BME280;10038;42.662;23.278;2022-08-30T01:39:44;72685.09;;;18.10;100.00
19759;BME280;10038;42.662;23.278;2022-08-30T01:42:13;72690.75;;;18.12;100.00
19759;BME280;10038;42.662;23.278;2022-08-30T01:44:41;72662.13;;;17.85;100.00
19759;BME280;10038;42.662;23.278;2022-08-30T01:47:08;72646.47;;;17.81;100.00
19759;BME280;10038;42.662;23.278;2022-08-30T01:49:36;72646.75;;;17.77;100.00
19759;BME280;10038;42.662;23.278;2022-08-30T01:52:03;72666.91;;;17.92;100.00
19759;BME280;10038;42.662;23.278;2022-08-30T01:54:30;72672.72;;;17.97;100.00
19759;BME280;10038;42.662;23.278;2022-08-30T01:56:57;72679.28;;;18.05;100.00
19759;BME280;10038;42.662;23.278;2022-08-30T01:59:26;72661.44;;;17.92;100.00
19759;BME280;10038;42.662;23.278;2022-08-30T02:01:53;72665.34;;;17.93;100.00
19759;BME280;10038;42.662;23.278;2022-08-30T02:04:20;72652.56;;;17.82;100.00
19759;BME280;10038;42.662;23.278;2022-08-30T02:06:47;72651.06;;;17.76;100.00
19759;BME280;10038;42.662;23.278;2022-08-30T02:09:14;72651.81;;;17.79;100.00
19759;BME280;10038;42.662;23.278;2022-08-30T02:11:40;72644.75;;;17.80;100.00
19759;BME280;10038;42.662;23.278;2022-08-30T02:14:07;72626.22;;;17.56;100.00
19759;BME280;10038;42.662;23.278;2022-08-30T02:16:36;72638.59;;;17.69;100.00
19759;BME280;10038;42.662;23.278;2022-08-30T02:19:03;72630.47;;;17.62;100.00
19759;BME280;10038;42.662;23.278;2022-08-30T02:21:29;72635.09;;;17.66;100.00
19759;BME280;10038;42.662;23.278;2022-08-30T02:23:56;72638.44;;;17.67;100.00
19759;BME280;10038;42.662;23.278;2022-08-30T02:26:23;72633.09;;;17.69;100.00
19759;BME280;10038;42.662;23.278;2022-08-30T02:28:51;72636.88;;;17.68;100.00
19759;BME280;10038;42.662;23.278;2022-08-30T02:31:19;72654.88;;;17.84;100.00
19759;BME280;10038;42.662;23.278;2022-08-30T02:33:50;72654.88;;;17.84;100.00
19759;BME280;10038;42.662;23.278;2022-08-30T02:36:18;72647.91;;;17.78;100.00
19759;BME280;10038;42.662;23.278;2022-08-30T02:38:45;72659.09;;;17.90;100.00
19759;BME280;10038;42.662;23.278;2022-08-30T02:41:13;72645.41;;;17.73;100.00
19759;BME280;10038;42.662;23.278;2022-08-30T02:43:40;72598.06;;;17.37;100.00
19759;BME280;10038;42.662;23.278;2022-08-30T02:46:06;72622.66;;;17.60;100.00
19759;BME280;10038;42.662;23.278;2022-08-30T02:48:33;72581.91;;;17.16;100.00
19759;BME280;10038;42.662;23.278;2022-08-30T02:51:05;72553.75;;;16.96;100.00
19759;BME280;10038;42.662;23.278;2022-08-30T02:53:33;72595.84;;;17.28;100.00
19759;BME280;10038;42.662;23.278;2022-08-30T02:55:59;72591.66;;;17.31;100.00
19759;BME280;10038;42.662;23.278;2022-08-30T02:58:26;72540.38;;;16.84;100.00
19759;BME280;10038;42.662;23.278;2022-08-30T03:00:53;72609.94;;;17.42;100.00
19759;BME280;10038;42.662;23.278;2022-08-30T03:03:20;72624.66;;;17.57;100.00
19759;BME280;10038;42.662;23.278;2022-08-30T03:05:47;72624.66;;;17.57;100.00
19759;BME280;10038;42.662;23.278;2022-08-30T03:08:15;72631.88;;;17.59;100.00
19759;BME280;10038;42.662;23.278;2022-08-30T03:10:42;72574.66;;;17.14;100.00
19759;BME280;10038;42.662;23.278;2022-08-30T03:13:09;72648.75;;;17.74;100.00
19759;BME280;10038;42.662;23.278;2022-08-30T03:15:37;72616.66;;;17.53;100.00
19759;BME280;10038;42.662;23.278;2022-08-30T03:18:04;72650.63;;;17.78;100.00
19759;BME280;10038;42.662;23.278;2022-08-30T03:20:32;72645.00;;;17.75;100.00
19759;BME280;10038;42.662;23.278;2022-08-30T03:23:00;72642.09;;;17.73;100.00
19759;BME280;10038;42.662;23.278;2022-08-30T03:25:29;72635.84;;;17.69;100.00
19759;BME280;10038;42.662;23.278;2022-08-30T03:27:55;72630.47;;;17.62;100.00
19759;BME280;10038;42.662;23.278;2022-08-30T03:30:22;72638.44;;;17.67;100.00
19759;BME280;10038;42.662;23.278;2022-08-30T03:32:50;72619.19;;;17.57;100.00
19759;BME280;10038;42.662;23.278;2022-08-30T03:35:17;72577.41;;;17.14;100.00
19759;BME280;10038;42.662;23.278;2022-08-30T03:37:44;72622.66;;;17.60;100.00
19759;BME280;10038;42.662;23.278;2022-08-30T03:40:13;72620.00;;;17.53;100.00
19759;BME280;10038;42.662;23.278;2022-08-30T03:42:42;72620.00;;;17.53;100.00
19759;BME280;10038;42.662;23.278;2022-08-30T03:45:10;72613.00;;;17.47;100.00
19759;BME280;10038;42.662;23.278;2022-08-30T03:47:37;72626.97;;;17.59;100.00
19759;BME280;10038;42.662;23.278;2022-08-30T03:50:05;72606.59;;;17.42;100.00
19759;BME280;10038;42.662;23.278;2022-08-30T03:52:32;72647.91;;;17.78;100.00
19759;BME280;10038;42.662;23.278;2022-08-30T03:54:59;72658.38;;;17.87;100.00
19759;BME280;10038;42.662;23.278;2022-08-30T03:57:27;72651.38;;;17.81;100.00
19759;BME280;10038;42.662;23.278;2022-08-30T03:59:55;72651.81;;;17.79;100.00
19759;BME280;10038;42.662;23.278;2022-08-30T04:02:22;72649.06;;;17.79;100.00
19759;BME280;10038;42.662;23.278;2022-08-30T04:04:49;72653.47;;;17.87;100.00
19759;BME280;10038;42.662;23.278;2022-08-30T04:07:16;72649.22;;;17.81;100.00
19759;BME280;10038;42.662;23.278;2022-08-30T04:09:43;72657.94;;;17.89;100.00
19759;BME280;10038;42.662;23.278;2022-08-30T04:12:10;72657.63;;;17.84;100.00
19759;BME280;10038;42.662;23.278;2022-08-30T04:14:37;72664.75;;;17.92;100.00
19759;BME280;10038;42.662;23.278;2022-08-30T04:17:05;72604.13;;;17.37;100.00
19759;BME280;10038;42.662;23.278;2022-08-30T04:19:32;72651.22;;;17.78;100.00
19759;BME280;10038;42.662;23.278;2022-08-30T04:21:58;72653.69;;;17.83;100.00
19759;BME280;10038;42.662;23.278;2022-08-30T04:24:26;72676.22;;;18.00;100.00
19759;BME280;10038;42.662;23.278;2022-08-30T04:26:53;72686.25;;;18.11;100.00
19759;BME280;10038;42.662;23.278;2022-08-30T04:29:19;72702.53;;;18.25;100.00
19759;BME280;10038;42.662;23.278;2022-08-30T04:31:46;72708.03;;;18.25;100.00
19759;BME280;10038;42.662;23.278;2022-08-30T04:34:14;72709.53;;;18.31;100.00
19759;BME280;10038;42.662;23.278;2022-08-30T04:36:41;72722.31;;;18.42;100.00
19759;BME280;10038;42.662;23.278;2022-08-30T04:39:08;72736.88;;;18.55;100.00
19759;BME280;10038;42.662;23.278;2022-08-30T04:41:36;72728.47;;;18.52;100.00
19759;BME280;10038;42.662;23.278;2022-08-30T04:44:04;72738.94;;;18.61;100.00
19759;BME280;10038;42.662;23.278;2022-08-30T04:46:31;72748.66;;;18.67;100.00
19759;BME280;10038;42.662;23.278;2022-08-30T04:48:59;72757.22;;;18.72;100.00
19759;BME280;10038;42.662;23.278;2022-08-30T04:51:52;72761.88;;;18.76;100.00
19759;BME280;10038;42.662;23.278;2022-08-30T04:54:20;72737.19;;;18.60;100.00
19759;BME280;10038;42.662;23.278;2022-08-30T04:56:46;72746.31;;;18.65;100.00
19759;BME280;10038;42.662;23.278;2022-08-30T04:59:13;72752.56;;;18.68;100.00
19759;BME280;10038;42.662;23.278;2022-08-30T05:01:41;72761.31;;;18.76;100.00
19759;BME280;10038;42.662;23.278;2022-08-30T05:04:07;72756.06;;;18.71;100.00
19759;BME280;10038;42.662;23.278;2022-08-30T05:06:34;72759.53;;;18.74;100.00
19759;BME280;10038;42.662;23.278;2022-08-30T05:09:02;72767.88;;;18.84;100.00
19759;BME280;10038;42.662;23.278;2022-08-30T05:11:29;72775.94;;;18.81;100.00
19759;BME280;10038;42.662;23.278;2022-08-30T05:13:56;72775.84;;;18.89;100.00
19759;BME280;10038;42.662;23.278;2022-08-30T05:16:23;72773.09;;;18.89;100.00
19759;BME280;10038;42.662;23.278;2022-08-30T05:18:50;72791.38;;;19.00;100.00
19759;BME280;10038;42.662;23.278;2022-08-30T05:21:20;72796.78;;;19.07;100.00
19759;BME280;10038;42.662;23.278;2022-08-30T05:23:48;72802.59;;;19.12;100.00
19759;BME280;10038;42.662;23.278;2022-08-30T05:26:18;72797.94;;;19.08;100.00
19759;BME280;10038;42.662;23.278;2022-08-30T05:28:46;72802.59;;;19.12;100.00
19759;BME280;10038;42.662;23.278;2022-08-30T05:31:16;72804.50;;;19.16;99.35
19759;BME280;10038;42.662;23.278;2022-08-30T05:33:43;72806.41;;;19.20;99.97
19759;BME280;10038;42.662;23.278;2022-08-30T05:36:12;72809.31;;;19.22;99.00
19759;BME280;10038;42.662;23.278;2022-08-30T05:38:39;72801.59;;;19.13;99.32
19759;BME280;10038;42.662;23.278;2022-08-30T05:41:07;72813.06;;;19.21;99.52
19759;BME280;10038;42.662;23.278;2022-08-30T05:43:35;72809.31;;;19.22;99.41
19759;BME280;10038;42.662;23.278;2022-08-30T05:46:04;72817.72;;;19.25;99.89
19759;BME280;10038;42.662;23.278;2022-08-30T05:48:32;72814.25;;;19.22;100.00
19759;BME280;10038;42.662;23.278;2022-08-30T05:51:03;72816.56;;;19.24;100.00
19759;BME280;10038;42.662;23.278;2022-08-30T05:53:30;72820.94;;;19.32;100.00
19759;BME280;10038;42.662;23.278;2022-08-30T05:55:57;72844.19;;;19.43;99.90
19759;BME280;10038;42.662;23.278;2022-08-30T05:58:24;72858.63;;;19.63;98.90
19759;BME280;10038;42.662;23.278;2022-08-30T06:00:52;72865.47;;;19.66;98.14
19759;BME280;10038;42.662;23.278;2022-08-30T06:03:19;72874.78;;;19.74;97.81
19759;BME280;10038;42.662;23.278;2022-08-30T06:05:46;72872.44;;;19.72;97.86
19759;BME280;10038;42.662;23.278;2022-08-30T06:08:12;72879.44;;;19.78;97.36
19759;BME280;10038;42.662;23.278;2022-08-30T06:10:39;72887.16;;;19.87;96.96
19759;BME280;10038;42.662;23.278;2022-08-30T06:13:06;72881.94;;;19.83;96.55
19759;BME280;10038;42.662;23.278;2022-08-30T06:15:33;72877.41;;;19.81;96.68
19759;BME280;10038;42.662;23.278;2022-08-30T06:18:01;72881.19;;;19.80;96.63
19759;BME280;10038;42.662;23.278;2022-08-30T06:20:28;72868.69;;;19.74;96.51
19759;BME280;10038;42.662;23.278;2022-08-30T06:22:54;72882.91;;;19.81;95.92
19759;BME280;10038;42.662;23.278;2022-08-30T06:25:21;72879.72;;;19.83;95.72
19759;BME280;10038;42.662;23.278;2022-08-30T06:27:48;72905.19;;;20.03;95.40
19759;BME280;10038;42.662;23.278;2022-08-30T06:30:15;72900.69;;;20.01;95.22
19759;BME280;10038;42.662;23.278;2022-08-30T06:32:42;72909.16;;;20.14;95.39
19759;BME280;10038;42.662;23.278;2022-08-30T06:35:10;72909.88;;;20.07;94.96
19759;BME280;10038;42.662;23.278;2022-08-30T06:37:37;72923.66;;;20.17;95.20
19759;BME280;10038;42.662;23.278;2022-08-30T06:40:04;72941.78;;;20.42;94.86
19759;BME280;10038;42.662;23.278;2022-08-30T06:42:32;72983.66;;;20.69;94.03
19759;BME280;10038;42.662;23.278;2022-08-30T06:45:00;72993.16;;;20.79;94.20
19759;BME280;10038;42.662;23.278;2022-08-30T06:47:27;72975.56;;;20.71;94.38
19759;BME280;10038;42.662;23.278;2022-08-30T06:49:54;72964.78;;;20.57;94.55
19759;BME280;10038;42.662;23.278;2022-08-30T06:52:22;72949.06;;;20.43;96.73
19759;BME280;10038;42.662;23.278;2022-08-30T06:54:48;72932.44;;;20.24;99.43
19759;BME280;10038;42.662;23.278;2022-08-30T06:57:15;72916.41;;;20.15;100.00
19759;BME280;10038;42.662;23.278;2022-08-30T06:59:42;72886.72;;;19.89;100.00
19759;BME280;10038;42.662;23.278;2022-08-30T07:02:09;72896.91;;;19.93;100.00
19759;BME280;10038;42.662;23.278;2022-08-30T07:04:36;72885.97;;;19.86;100.00
19759;BME280;10038;42.662;23.278;2022-08-30T07:07:03;72926.00;;;20.19;100.00
19759;BME280;10038;42.662;23.278;2022-08-30T07:09:31;72929.84;;;20.27;100.00
19759;BME280;10038;42.662;23.278;2022-08-30T07:12:01;72937.66;;;20.29;100.00
19759;BME280;10038;42.662;23.278;2022-08-30T07:14:28;72959.53;;;20.52;100.00
19759;BME280;10038;42.662;23.278;2022-08-30T07:16:55;72994.22;;;20.87;99.59
19759;BME280;10038;42.662;23.278;2022-08-30T07:19:21;73027.69;;;21.11;98.59
19759;BME280;10038;42.662;23.278;2022-08-30T07:21:48;73039.34;;;21.22;95.66
19759;BME280;10038;42.662;23.278;2022-08-30T07:24:15;73054.22;;;21.39;94.27
19759;BME280;10038;42.662;23.278;2022-08-30T07:26:45;73149.53;;;22.17;92.11
19759;BME280;10038;42.662;23.278;2022-08-30T07:29:14;73220.41;;;22.83;90.56
19759;BME280;10038;42.662;23.278;2022-08-30T07:31:41;73187.75;;;22.55;87.41
19759;BME280;10038;42.662;23.278;2022-08-30T07:34:08;73375.69;;;24.17;84.45
19759;BME280;10038;42.662;23.278;2022-08-30T07:36:36;73421.22;;;24.56;81.24
19759;BME280;10038;42.662;23.278;2022-08-30T07:39:04;73335.38;;;23.82;82.44
19759;BME280;10038;42.662;23.278;2022-08-30T07:41:33;73315.22;;;23.60;83.00
19759;BME280;10038;42.662;23.278;2022-08-30T07:44:04;73236.44;;;22.92;86.78
19759;BME280;10038;42.662;23.278;2022-08-30T07:46:31;73214.56;;;22.78;87.52
19759;BME280;10038;42.662;23.278;2022-08-30T07:48:59;73220.53;;;22.76;87.03
19759;BME280;10038;42.662;23.278;2022-08-30T07:51:27;73321.66;;;23.66;84.27
19759;BME280;10038;42.662;23.278;2022-08-30T07:53:55;73549.78;;;25.67;76.31
19759;BME280;10038;42.662;23.278;2022-08-30T07:56:23;73803.22;;;27.88;68.22
19759;BME280;10038;42.662;23.278;2022-08-30T07:58:50;73867.66;;;28.44;67.15
19759;BME280;10038;42.662;23.278;2022-08-30T08:01:19;73806.03;;;27.88;65.75
19759;BME280;10038;42.662;23.278;2022-08-30T08:03:46;73837.66;;;28.16;64.83
19759;BME280;10038;42.662;23.278;2022-08-30T08:06:16;73796.66;;;27.80;66.56
19759;BME280;10038;42.662;23.278;2022-08-30T08:08:43;73525.81;;;25.47;73.63
19759;BME280;10038;42.662;23.278;2022-08-30T08:11:12;73479.38;;;25.02;76.83
19759;BME280;10038;42.662;23.278;2022-08-30T08:13:39;73413.91;;;24.45;78.24
19759;BME280;10038;42.662;23.278;2022-08-30T08:16:07;73401.94;;;24.40;80.46
19759;BME280;10038;42.662;23.278;2022-08-30T08:18:35;73384.72;;;24.20;82.24
19759;BME280;10038;42.662;23.278;2022-08-30T08:21:02;73362.50;;;24.01;81.79
19759;BME280;10038;42.662;23.278;2022-08-30T08:23:29;73364.56;;;24.07;81.61
19759;BME280;10038;42.662;23.278;2022-08-30T08:25:56;73294.81;;;23.42;81.20
19759;BME280;10038;42.662;23.278;2022-08-30T08:28:23;73293.66;;;23.41;84.74
19759;BME280;10038;42.662;23.278;2022-08-30T08:30:50;73254.25;;;23.12;84.72
19759;BME280;10038;42.662;23.278;2022-08-30T08:33:17;73224.78;;;22.82;85.24
19759;BME280;10038;42.662;23.278;2022-08-30T08:35:45;73155.38;;;22.22;85.57
19759;BME280;10038;42.662;23.278;2022-08-30T08:38:12;73204.94;;;22.65;86.32
19759;BME280;10038;42.662;23.278;2022-08-30T08:40:44;73216.59;;;22.75;88.14
19759;BME280;10038;42.662;23.278;2022-08-30T08:43:16;73198.81;;;22.64;85.48
19759;BME280;10038;42.662;23.278;2022-08-30T08:45:49;73178.69;;;22.42;85.67
19759;BME280;10038;42.662;23.278;2022-08-30T08:48:32;73203.22;;;22.63;85.86
19759;BME280;10038;42.662;23.278;2022-08-30T08:51:02;73247.53;;;23.02;87.06
19759;BME280;10038;42.662;23.278;2022-08-30T08:53:50;73251.34;;;23.10;85.64
19759;BME280;10038;42.662;23.278;2022-08-30T08:56:19;73258.63;;;23.11;84.83
19759;BME280;10038;42.662;23.278;2022-08-30T08:58:49;73202.91;;;22.68;86.18
19759;BME280;10038;42.662;23.278;2022-08-30T09:01:19;73241.13;;;22.96;88.46
19759;BME280;10038;42.662;23.278;2022-08-30T09:03:46;73249.56;;;23.08;87.41
19759;BME280;10038;42.662;23.278;2022-08-30T09:06:32;73294.81;;;23.42;86.38
19759;BME280;10038;42.662;23.278;2022-08-30T09:09:05;73347.34;;;23.88;85.41
19759;BME280;10038;42.662;23.278;2022-08-30T09:11:34;73316.13;;;23.66;87.20
19759;BME280;10038;42.662;23.278;2022-08-30T09:14:01;73363.38;;;24.06;87.07
19759;BME280;10038;42.662;23.278;2022-08-30T09:16:49;73352.31;;;23.97;85.18
19759;BME280;10038;42.662;23.278;2022-08-30T09:19:33;73326.63;;;23.75;85.93
19759;BME280;10038;42.662;23.278;2022-08-30T09:22:04;73398.44;;;24.37;85.66
19759;BME280;10038;42.662;23.278;2022-08-30T09:24:40;73437.88;;;24.66;84.93
19759;BME280;10038;42.662;23.278;2022-08-30T09:27:15;73394.38;;;24.33;83.79
19759;BME280;10038;42.662;23.278;2022-08-30T09:29:55;73418.59;;;24.49;81.53
19759;BME280;10038;42.662;23.278;2022-08-30T09:32:25;73453.94;;;24.85;79.80
19759;BME280;10038;42.662;23.278;2022-08-30T09:34:52;73444.88;;;24.72;79.57
19759;BME280;10038;42.662;23.278;2022-08-30T09:37:27;73451.31;;;24.78;78.77
19759;BME280;10038;42.662;23.278;2022-08-30T09:39:56;73469.13;;;24.98;78.55
19759;BME280;10038;42.662;23.278;2022-08-30T09:42:25;73490.19;;;25.16;79.27
19759;BME280;10038;42.662;23.278;2022-08-30T09:44:53;73521.72;;;25.43;77.47
19759;BME280;10038;42.662;23.278;2022-08-30T09:47:36;73527.16;;;25.50;76.19
19759;BME280;10038;42.662;23.278;2022-08-30T09:50:06;73598.88;;;26.10;76.18
19759;BME280;10038;42.662;23.278;2022-08-30T09:52:44;73608.41;;;26.20;75.64
19759;BME280;10038;42.662;23.278;2022-08-30T09:55:22;73657.38;;;26.60;74.14
19759;BME280;10038;42.662;23.278;2022-08-30T09:57:58;73676.09;;;26.76;74.02
19759;BME280;10038;42.662;23.278;2022-08-30T10:00:30;73670.25;;;26.71;72.29
19759;BME280;10038;42.662;23.278;2022-08-30T10:03:26;73735.78;;;27.28;71.08
19759;BME280;10038;42.662;23.278;2022-08-30T10:06:05;73762.28;;;27.53;68.66
19759;BME280;10038;42.662;23.278;2022-08-30T10:08:49;73741.19;;;27.35;67.16
19759;BME280;10038;42.662;23.278;2022-08-30T10:11:26;73728.31;;;27.24;67.74
19759;BME280;10038;42.662;23.278;2022-08-30T10:14:05;73844.25;;;28.24;65.22
19759;BME280;10038;42.662;23.278;2022-08-30T10:16:42;73889.19;;;28.60;65.31
19759;BME280;10038;42.662;23.278;2022-08-30T10:19:22;73974.28;;;29.36;63.28
19759;BME280;10038;42.662;23.278;2022-08-30T10:21:58;74097.84;;;30.39;60.53
19759;BME280;10038;42.662;23.278;2022-08-30T10:24:31;74162.63;;;31.00;56.90
19759;BME280;10038;42.662;23.278;2022-08-30T10:27:06;74267.66;;;31.90;52.88
19759;BME280;10038;42.662;23.278;2022-08-30T10:29:39;74416.13;;;33.15;51.39
19759;BME280;10038;42.662;23.278;2022-08-30T10:32:13;74400.50;;;33.07;49.88
19759;BME280;10038;42.662;23.278;2022-08-30T10:34:45;74440.91;;;33.39;47.60
19759;BME280;10038;42.662;23.278;2022-08-30T10:37:18;74682.63;;;35.49;43.50
19759;BME280;10038;42.662;23.278;2022-08-30T10:39:49;74756.75;;;36.13;42.14
19759;BME280;10038;42.662;23.278;2022-08-30T10:42:20;74704.28;;;35.65;42.38
19759;BME280;10038;42.662;23.278;2022-08-30T10:44:53;74521.41;;;34.08;43.93
19759;BME280;10038;42.662;23.278;2022-08-30T10:47:29;74560.78;;;34.42;43.59
19759;BME280;10038;42.662;23.278;2022-08-30T10:50:05;74690.16;;;35.53;41.59
19759;BME280;10038;42.662;23.278;2022-08-30T10:52:35;74808.44;;;36.54;42.27
19759;BME280;10038;42.662;23.278;2022-08-30T10:55:10;74866.72;;;37.04;39.41
19759;BME280;10038;42.662;23.278;2022-08-30T10:57:39;74867.31;;;37.05;38.31
19759;BME280;10038;42.662;23.278;2022-08-30T11:00:09;74807.97;;;36.56;39.21
19759;BME280;10038;42.662;23.278;2022-08-30T11:06:05;74849.75;;;36.92;38.16
19759;BME280;10038;42.662;23.278;2022-08-30T11:09:02;74951.53;;;37.77;37.18
19759;BME280;10038;42.662;23.278;2022-08-30T11:11:40;74899.69;;;37.33;36.93
19759;BME280;10038;42.662;23.278;2022-08-30T11:14:15;74923.25;;;37.53;37.84
19759;BME280;10038;42.662;23.278;2022-08-30T11:16:45;74784.31;;;36.34;39.70
19759;BME280;10038;42.662;23.278;2022-08-30T11:19:16;74753.13;;;36.07;40.99
19759;BME280;10038;42.662;23.278;2022-08-30T11:21:45;74752.06;;;36.08;40.32
19759;BME280;10038;42.662;23.278;2022-08-30T11:24:14;74671.34;;;35.37;42.36
19759;BME280;10038;42.662;23.278;2022-08-30T11:27:00;74573.69;;;34.53;43.29
19759;BME280;10038;42.662;23.278;2022-08-30T11:29:39;74304.97;;;32.18;48.98
19759;BME280;10038;42.662;23.278;2022-08-30T11:32:23;74265.63;;;31.84;51.85
19759;BME280;10038;42.662;23.278;2022-08-30T11:34:58;74149.72;;;30.89;54.44
19759;BME280;10038;42.662;23.278;2022-08-30T11:37:37;74147.69;;;30.82;56.72
19759;BME280;10038;42.662;23.278;2022-08-30T11:40:09;74124.25;;;30.62;57.76
19759;BME280;10038;42.662;23.278;2022-08-30T11:42:40;74041.56;;;29.91;57.61
19759;BME280;10038;42.662;23.278;2022-08-30T11:45:46;74024.53;;;29.76;60.33
19759;BME280;10038;42.662;23.278;2022-08-30T11:48:39;73953.16;;;29.17;61.81
19759;BME280;10038;42.662;23.278;2022-08-30T11:51:19;73918.75;;;28.90;61.50
19759;BME280;10038;42.662;23.278;2022-08-30T11:53:53;73879.38;;;28.54;62.60
19759;BME280;10038;42.662;23.278;2022-08-30T11:56:26;73955.97;;;29.17;61.44
19759;BME280;10038;42.662;23.278;2022-08-30T11:59:05;73887.56;;;28.61;60.30
19759;BME280;10038;42.662;23.278;2022-08-30T12:01:36;73850.84;;;28.22;62.74
19759;BME280;10038;42.662;23.278;2022-08-30T12:04:07;73855.81;;;28.31;61.71
19759;BME280;10038;42.662;23.278;2022-08-30T12:06:44;73987.63;;;29.45;60.53
19759;BME280;10038;42.662;23.278;2022-08-30T12:12:47;74175.53;;;31.11;50.87
19759;BME280;10038;42.662;23.278;2022-08-30T12:18:27;74469.69;;;33.64;43.03
19759;BME280;10038;42.662;23.278;2022-08-30T12:20:58;74427.84;;;33.25;45.18
19759;BME280;10038;42.662;23.278;2022-08-30T12:23:36;74471.44;;;33.65;40.04
19759;BME280;10038;42.662;23.278;2022-08-30T12:26:16;74604.28;;;34.79;37.95
19759;BME280;10038;42.662;23.278;2022-08-30T12:28:44;74646.66;;;35.16;40.52
19759;BME280;10038;42.662;23.278;2022-08-30T12:31:16;74596.06;;;34.72;37.01
19759;BME280;10038;42.662;23.278;2022-08-30T12:33:51;74603.13;;;34.78;37.93
19759;BME280;10038;42.662;23.278;2022-08-30T12:36:32;74594.78;;;34.69;39.86
19759;BME280;10038;42.662;23.278;2022-08-30T12:39:09;74608.53;;;34.85;37.31
19759;BME280;10038;42.662;23.278;2022-08-30T12:41:37;74542.56;;;34.26;37.92
19759;BME280;10038;42.662;23.278;2022-08-30T12:44:07;74563.25;;;34.47;37.18
19759;BME280;10038;42.662;23.278;2022-08-30T12:46:35;74651.94;;;35.20;37.57
19759;BME280;10038;42.662;23.278;2022-08-30T12:49:04;74723.09;;;35.81;36.49
19759;BME280;10038;42.662;23.278;2022-08-30T12:51:36;74659.59;;;35.27;36.46
19759;BME280;10038;42.662;23.278;2022-08-30T12:54:07;74660.16;;;35.27;35.38
19759;BME280;10038;42.662;23.278;2022-08-30T12:56:56;74609.47;;;34.81;35.44
19759;BME280;10038;42.662;23.278;2022-08-30T12:59:45;74559.59;;;34.41;38.57
19759;BME280;10038;42.662;23.278;2022-08-30T13:02:14;74614.28;;;34.88;37.96
19759;BME280;10038;42.662;23.278;2022-08-30T13:04:43;74668.28;;;35.32;36.16
19759;BME280;10038;42.662;23.278;2022-08-30T13:07:24;74587.84;;;34.65;36.71
19759;BME280;10038;42.662;23.278;2022-08-30T13:10:04;74555.59;;;34.40;38.19